Terminal Aerodrome Forecast
Issued by NWS

Home | Current Version | Previous Version | Text Only | Print | Product List | Glossary On
Versions: 1 2 3 4 5 6 7 8 9 10 11 12 13
000
FTUS46 KOTX 270528
TAFCOE
TAF
KCOE 270528Z 2706/2806 17009KT P6SM SCT040 BKN060 BKN150
     FM270900 19008G15KT P6SM VCSH SCT020 BKN040 BKN070
     FM271500 20011G19KT P6SM VCSH SCT040 BKN070 BKN200
     FM272100 22011G15KT P6SM VCSH BKN060 BKN150
     FM280200 17005KT P6SM SCT060 SCT150
      AMD LTD TO CLD AND VIS=

USA.gov is the U.S. government's official web portal to all federal, state and local government web resources and services.